デンバー の空港の天気 - METARとTAF

デンバー国際空港 ( KDEN / DEN ) - アメリカ コロラド州デンバー
飛行場実況気象(Metar)
観測時間06/24 03:53 MDT (06/24 09:53 UTC)
風向・風速南南西 6m/s
視程10km以上
天気現象
全天の4割程度の雲 雲底高度 3660m
気温10.6℃
湿度56%
気圧1011.7hPa
METARKDEN 240953Z 21012KT 10SM SCT120 11/02 A3002 RMK AO2 SLP117 T01060022 $
過去の天気等 Google飛行場航空写真 Wunderground天気予報

過去48時間のMETAR

飛行場予報(TAF)
発表時間: 6/24 03:02 MDT (6/24 09:02 UTC)
予報対象時間: 24日3時 MDT ~ 25日6時 MDT
風向・風速南南西 6m/s
視程10km以上
少しの雲 雲底高度 3350m
24日10時 MDT から
風向・風速西南西 3m/s
視程10km以上
少しの雲 雲底高度 3660m
24日13時 MDT から
風向・風速西 6m/s
視程10km以上
少しの雲 雲底高度 3660m
全天の4割程度の雲 雲底高度 6100m
24日16時 MDT から
風向・風速西北西 7m/s 瞬間風速 11m/s
視程10km以上
少しの雲 雲底高度 3050m
全天の4割程度の雲 雲底高度 4570m
24日19時 MDT から
風向・風速北西 5m/s
視程10km以上
少しの雲 雲底高度 3050m
全天の4割程度の雲 雲底高度 6100m
24日21時 MDT から
風向・風速南西 5m/s
視程10km以上
全天の4割程度の雲 雲底高度 6100m
KDEN 240902Z 2409/2512 20012KT P6SM FEW110
FM241600 24006KT P6SM FEW120
FM241900 28012KT P6SM FEW120 SCT200
FM242200 30014G22KT P6SM FEW100 SCT150
FM250100 31009KT P6SM FEW100 SCT200
FM250300 23010KT P6SM SCT200